sensor_id;sensor_type;location;lat;lon;timestamp;temperature;humidity
997;DHT22;487;50.126;8.698;2023-04-19T04:01:24;11.40;99.90
997;DHT22;487;50.126;8.698;2023-04-19T04:03:52;11.30;99.90
997;DHT22;487;50.126;8.698;2023-04-19T04:06:20;11.10;99.90
997;DHT22;487;50.126;8.698;2023-04-19T04:08:48;11.10;99.90
997;DHT22;487;50.126;8.698;2023-04-19T04:11:16;11.10;99.90
997;DHT22;487;50.126;8.698;2023-04-19T04:13:44;11.10;99.90
997;DHT22;487;50.126;8.698;2023-04-19T04:16:12;11.10;99.90
997;DHT22;487;50.126;8.698;2023-04-19T04:18:41;11.20;99.90
997;DHT22;487;50.126;8.698;2023-04-19T04:21:09;11.20;99.90
997;DHT22;487;50.126;8.698;2023-04-19T04:23:37;11.20;99.90
997;DHT22;487;50.126;8.698;2023-04-19T04:26:05;11.20;99.90
997;DHT22;487;50.126;8.698;2023-04-19T04:28:37;11.20;99.90
997;DHT22;487;50.126;8.698;2023-04-19T04:31:05;11.20;99.90
997;DHT22;487;50.126;8.698;2023-04-19T04:33:32;11.20;99.90
997;DHT22;487;50.126;8.698;2023-04-19T04:36:02;11.30;99.90
997;DHT22;487;50.126;8.698;2023-04-19T04:38:31;11.30;99.90
997;DHT22;487;50.126;8.698;2023-04-19T04:40:59;11.30;99.90
997;DHT22;487;50.126;8.698;2023-04-19T04:43:27;11.30;99.90
997;DHT22;487;50.126;8.698;2023-04-19T04:45:55;11.30;99.90
997;DHT22;487;50.126;8.698;2023-04-19T04:50:52;11.30;99.90
997;DHT22;487;50.126;8.698;2023-04-19T04:53:21;11.30;99.90
997;DHT22;487;50.126;8.698;2023-04-19T04:55:49;11.30;99.90
997;DHT22;487;50.126;8.698;2023-04-19T04:58:17;11.30;99.90
997;DHT22;487;50.126;8.698;2023-04-19T05:00:46;11.30;99.90
997;DHT22;487;50.126;8.698;2023-04-19T05:03:14;11.30;99.90
997;DHT22;487;50.126;8.698;2023-04-19T05:05:42;11.30;99.90
997;DHT22;487;50.126;8.698;2023-04-19T05:08:11;11.30;99.90
997;DHT22;487;50.126;8.698;2023-04-19T05:10:40;11.40;99.90
997;DHT22;487;50.126;8.698;2023-04-19T05:13:08;11.40;99.90
997;DHT22;487;50.126;8.698;2023-04-19T05:15:36;11.40;99.90
997;DHT22;487;50.126;8.698;2023-04-19T05:18:04;11.40;99.90
997;DHT22;487;50.126;8.698;2023-04-19T05:20:32;11.40;99.90
997;DHT22;487;50.126;8.698;2023-04-19T05:25:29;11.40;99.90
997;DHT22;487;50.126;8.698;2023-04-19T05:28:02;11.40;99.90
997;DHT22;487;50.126;8.698;2023-04-19T05:30:30;11.40;99.90
997;DHT22;487;50.126;8.698;2023-04-19T05:32:58;11.40;99.90
997;DHT22;487;50.126;8.698;2023-04-19T05:35:26;11.40;99.90
997;DHT22;487;50.126;8.698;2023-04-19T05:37:54;11.40;99.90
997;DHT22;487;50.126;8.698;2023-04-19T05:40:22;11.50;99.90
997;DHT22;487;50.126;8.698;2023-04-19T05:42:50;11.50;99.90
997;DHT22;487;50.126;8.698;2023-04-19T05:45:20;11.50;99.90
997;DHT22;487;50.126;8.698;2023-04-19T05:47:48;11.40;99.90
997;DHT22;487;50.126;8.698;2023-04-19T05:50:16;11.40;99.90
997;DHT22;487;50.126;8.698;2023-04-19T05:52:46;11.50;99.90
997;DHT22;487;50.126;8.698;2023-04-19T05:55:14;11.50;99.90
997;DHT22;487;50.126;8.698;2023-04-19T05:57:41;11.50;99.90
997;DHT22;487;50.126;8.698;2023-04-19T06:00:10;11.50;99.90
997;DHT22;487;50.126;8.698;2023-04-19T06:02:40;11.50;99.90
997;DHT22;487;50.126;8.698;2023-04-19T06:05:09;11.60;99.90
997;DHT22;487;50.126;8.698;2023-04-19T06:07:38;11.60;99.90
997;DHT22;487;50.126;8.698;2023-04-19T06:10:19;11.60;99.90
997;DHT22;487;50.126;8.698;2023-04-19T06:12:48;11.50;99.90
997;DHT22;487;50.126;8.698;2023-04-19T06:15:16;11.50;99.90
997;DHT22;487;50.126;8.698;2023-04-19T06:17:45;11.50;99.90
997;DHT22;487;50.126;8.698;2023-04-19T06:20:16;11.50;99.90
997;DHT22;487;50.126;8.698;2023-04-19T06:22:45;11.50;99.90
997;DHT22;487;50.126;8.698;2023-04-19T06:25:13;11.60;99.90
997;DHT22;487;50.126;8.698;2023-04-19T06:27:43;11.60;99.90
997;DHT22;487;50.126;8.698;2023-04-19T06:30:11;11.60;99.90
997;DHT22;487;50.126;8.698;2023-04-19T06:32:39;11.50;99.90
997;DHT22;487;50.126;8.698;2023-04-19T06:35:10;11.50;99.90
997;DHT22;487;50.126;8.698;2023-04-19T06:37:38;11.50;99.90
997;DHT22;487;50.126;8.698;2023-04-19T06:40:07;11.50;99.90
997;DHT22;487;50.126;8.698;2023-04-19T06:42:35;11.50;99.90
997;DHT22;487;50.126;8.698;2023-04-19T06:45:03;11.50;99.90
997;DHT22;487;50.126;8.698;2023-04-19T06:47:32;11.50;99.90
997;DHT22;487;50.126;8.698;2023-04-19T06:50:01;11.50;99.90
997;DHT22;487;50.126;8.698;2023-04-19T06:52:30;11.60;99.90
997;DHT22;487;50.126;8.698;2023-04-19T06:54:58;11.60;99.90
997;DHT22;487;50.126;8.698;2023-04-19T06:57:26;11.60;99.90
997;DHT22;487;50.126;8.698;2023-04-19T07:02:23;11.60;99.90
997;DHT22;487;50.126;8.698;2023-04-19T07:04:52;11.60;99.90
997;DHT22;487;50.126;8.698;2023-04-19T07:07:20;11.60;99.90
997;DHT22;487;50.126;8.698;2023-04-19T07:09:49;11.60;99.90
997;DHT22;487;50.126;8.698;2023-04-19T07:12:17;11.50;99.90
997;DHT22;487;50.126;8.698;2023-04-19T07:14:45;11.40;99.90
997;DHT22;487;50.126;8.698;2023-04-19T07:17:12;11.40;99.90
997;DHT22;487;50.126;8.698;2023-04-19T07:19:41;11.50;99.90
997;DHT22;487;50.126;8.698;2023-04-19T07:22:14;11.50;99.90
997;DHT22;487;50.126;8.698;2023-04-19T07:24:42;11.50;99.90
997;DHT22;487;50.126;8.698;2023-04-19T07:27:12;11.40;99.90
997;DHT22;487;50.126;8.698;2023-04-19T07:29:42;11.40;99.90
997;DHT22;487;50.126;8.698;2023-04-19T07:32:09;11.40;99.90
997;DHT22;487;50.126;8.698;2023-04-19T07:34:40;11.40;99.90
997;DHT22;487;50.126;8.698;2023-04-19T07:37:09;11.50;99.90
997;DHT22;487;50.126;8.698;2023-04-19T07:39:36;11.50;99.90
997;DHT22;487;50.126;8.698;2023-04-19T07:42:04;11.50;99.90
997;DHT22;487;50.126;8.698;2023-04-19T07:44:33;11.50;99.90
997;DHT22;487;50.126;8.698;2023-04-19T07:47:03;11.40;99.90
997;DHT22;487;50.126;8.698;2023-04-19T07:49:31;11.40;99.90
997;DHT22;487;50.126;8.698;2023-04-19T07:52:00;11.50;99.90
997;DHT22;487;50.126;8.698;2023-04-19T07:54:28;11.60;99.90
997;DHT22;487;50.126;8.698;2023-04-19T07:56:57;11.60;99.90
997;DHT22;487;50.126;8.698;2023-04-19T07:59:35;11.70;99.90
997;DHT22;487;50.126;8.698;2023-04-19T08:02:03;11.70;99.90
997;DHT22;487;50.126;8.698;2023-04-19T08:04:31;11.80;99.90
997;DHT22;487;50.126;8.698;2023-04-19T08:06:59;11.80;99.90
997;DHT22;487;50.126;8.698;2023-04-19T08:09:29;11.90;99.90
997;DHT22;487;50.126;8.698;2023-04-19T08:11:57;11.90;99.90
997;DHT22;487;50.126;8.698;2023-04-19T08:14:25;12.10;99.90
997;DHT22;487;50.126;8.698;2023-04-19T08:17:10;12.20;99.90
997;DHT22;487;50.126;8.698;2023-04-19T08:19:51;12.20;99.90
997;DHT22;487;50.126;8.698;2023-04-19T08:22:19;12.20;99.90
997;DHT22;487;50.126;8.698;2023-04-19T08:24:48;12.20;99.90
997;DHT22;487;50.126;8.698;2023-04-19T08:27:17;12.20;99.90
997;DHT22;487;50.126;8.698;2023-04-19T08:29:45;12.30;99.90
997;DHT22;487;50.126;8.698;2023-04-19T08:32:14;12.30;99.90
997;DHT22;487;50.126;8.698;2023-04-19T08:34:42;12.30;99.90
997;DHT22;487;50.126;8.698;2023-04-19T08:37:10;12.20;99.90
997;DHT22;487;50.126;8.698;2023-04-19T08:42:08;12.20;99.90
997;DHT22;487;50.126;8.698;2023-04-19T08:44:55;12.20;99.90
997;DHT22;487;50.126;8.698;2023-04-19T08:50:27;12.30;99.90
997;DHT22;487;50.126;8.698;2023-04-19T08:53:07;12.60;99.90
997;DHT22;487;50.126;8.698;2023-04-19T08:55:51;12.70;99.90
997;DHT22;487;50.126;8.698;2023-04-19T09:01:11;12.90;99.90
997;DHT22;487;50.126;8.698;2023-04-19T09:04:00;12.90;99.90
997;DHT22;487;50.126;8.698;2023-04-19T09:06:48;12.80;99.90
997;DHT22;487;50.126;8.698;2023-04-19T09:09:17;12.80;99.90
997;DHT22;487;50.126;8.698;2023-04-19T09:12:14;12.80;99.90
997;DHT22;487;50.126;8.698;2023-04-19T09:14:44;13.00;99.90
997;DHT22;487;50.126;8.698;2023-04-19T09:17:15;13.10;99.90
997;DHT22;487;50.126;8.698;2023-04-19T09:19:48;13.10;99.90
997;DHT22;487;50.126;8.698;2023-04-19T09:22:17;13.30;99.90
997;DHT22;487;50.126;8.698;2023-04-19T09:24:45;13.30;99.90
997;DHT22;487;50.126;8.698;2023-04-19T09:27:24;13.30;99.90
997;DHT22;487;50.126;8.698;2023-04-19T09:29:53;13.40;99.90
997;DHT22;487;50.126;8.698;2023-04-19T09:32:21;13.40;99.90
997;DHT22;487;50.126;8.698;2023-04-19T09:37:24;13.50;99.90
997;DHT22;487;50.126;8.698;2023-04-19T09:40:21;13.40;99.90
997;DHT22;487;50.126;8.698;2023-04-19T09:42:50;13.30;99.90
997;DHT22;487;50.126;8.698;2023-04-19T09:45:50;13.30;99.90
997;DHT22;487;50.126;8.698;2023-04-19T09:48:26;13.40;99.90
997;DHT22;487;50.126;8.698;2023-04-19T09:51:00;13.40;99.90
997;DHT22;487;50.126;8.698;2023-04-19T09:53:38;13.40;99.90
997;DHT22;487;50.126;8.698;2023-04-19T09:56:09;13.50;99.90
997;DHT22;487;50.126;8.698;2023-04-19T09:58:38;13.50;99.90
997;DHT22;487;50.126;8.698;2023-04-19T10:01:22;13.50;99.90
997;DHT22;487;50.126;8.698;2023-04-19T10:03:52;13.50;99.90
997;DHT22;487;50.126;8.698;2023-04-19T10:06:23;13.50;99.90
997;DHT22;487;50.126;8.698;2023-04-19T10:08:54;13.50;99.90
997;DHT22;487;50.126;8.698;2023-04-19T10:11:22;13.40;99.90
997;DHT22;487;50.126;8.698;2023-04-19T10:13:55;13.50;99.90
997;DHT22;487;50.126;8.698;2023-04-19T10:16:24;13.50;99.90
997;DHT22;487;50.126;8.698;2023-04-19T10:18:53;13.50;99.90
997;DHT22;487;50.126;8.698;2023-04-19T10:21:23;13.60;99.90
997;DHT22;487;50.126;8.698;2023-04-19T10:23:53;13.70;99.90
997;DHT22;487;50.126;8.698;2023-04-19T10:26:21;13.70;99.90
997;DHT22;487;50.126;8.698;2023-04-19T10:28:49;13.80;99.90
997;DHT22;487;50.126;8.698;2023-04-19T10:31:19;13.80;99.90
997;DHT22;487;50.126;8.698;2023-04-19T10:33:49;13.60;99.90
997;DHT22;487;50.126;8.698;2023-04-19T10:36:18;13.50;99.90
997;DHT22;487;50.126;8.698;2023-04-19T10:38:49;13.50;99.90
997;DHT22;487;50.126;8.698;2023-04-19T10:41:19;13.50;99.90
997;DHT22;487;50.126;8.698;2023-04-19T10:44:08;13.50;99.90
997;DHT22;487;50.126;8.698;2023-04-19T10:46:37;13.50;99.90
997;DHT22;487;50.126;8.698;2023-04-19T10:49:07;13.50;99.90
997;DHT22;487;50.126;8.698;2023-04-19T10:51:36;13.60;99.90
997;DHT22;487;50.126;8.698;2023-04-19T10:54:07;13.70;99.90
997;DHT22;487;50.126;8.698;2023-04-19T10:56:57;13.70;99.90
997;DHT22;487;50.126;8.698;2023-04-19T10:59:28;13.80;99.90
997;DHT22;487;50.126;8.698;2023-04-19T11:01:58;14.00;99.90
997;DHT22;487;50.126;8.698;2023-04-19T11:04:58;14.00;99.90
997;DHT22;487;50.126;8.698;2023-04-19T11:07:26;14.00;99.90
997;DHT22;487;50.126;8.698;2023-04-19T11:09:56;14.10;99.90
997;DHT22;487;50.126;8.698;2023-04-19T11:12:24;14.10;99.90
997;DHT22;487;50.126;8.698;2023-04-19T11:14:53;14.10;97.70
997;DHT22;487;50.126;8.698;2023-04-19T11:17:24;14.10;98.20
997;DHT22;487;50.126;8.698;2023-04-19T11:19:55;14.10;99.90
997;DHT22;487;50.126;8.698;2023-04-19T11:22:30;14.20;99.90
997;DHT22;487;50.126;8.698;2023-04-19T11:25:10;14.40;98.50
997;DHT22;487;50.126;8.698;2023-04-19T11:27:39;14.50;97.30
997;DHT22;487;50.126;8.698;2023-04-19T11:30:09;14.50;95.70
997;DHT22;487;50.126;8.698;2023-04-19T11:32:43;14.50;95.40
997;DHT22;487;50.126;8.698;2023-04-19T11:35:12;14.50;88.20
997;DHT22;487;50.126;8.698;2023-04-19T11:37:40;14.50;94.70
997;DHT22;487;50.126;8.698;2023-04-19T11:40:14;14.50;93.30
997;DHT22;487;50.126;8.698;2023-04-19T11:42:42;14.50;93.90
997;DHT22;487;50.126;8.698;2023-04-19T11:45:23;14.70;89.40
997;DHT22;487;50.126;8.698;2023-04-19T11:47:55;14.70;89.70
997;DHT22;487;50.126;8.698;2023-04-19T11:50:34;14.70;89.50
997;DHT22;487;50.126;8.698;2023-04-19T11:53:13;14.70;94.90
997;DHT22;487;50.126;8.698;2023-04-19T11:55:43;14.70;84.20
997;DHT22;487;50.126;8.698;2023-04-19T11:58:25;14.70;77.20
997;DHT22;487;50.126;8.698;2023-04-19T12:00:55;14.60;84.90
997;DHT22;487;50.126;8.698;2023-04-19T12:03:24;14.50;71.90
997;DHT22;487;50.126;8.698;2023-04-19T12:05:53;14.70;75.60
997;DHT22;487;50.126;8.698;2023-04-19T12:08:32;14.80;75.20
997;DHT22;487;50.126;8.698;2023-04-19T12:11:03;14.80;86.00
997;DHT22;487;50.126;8.698;2023-04-19T12:13:32;14.90;77.10
997;DHT22;487;50.126;8.698;2023-04-19T12:16:00;15.00;79.70
997;DHT22;487;50.126;8.698;2023-04-19T12:18:44;15.00;88.30
997;DHT22;487;50.126;8.698;2023-04-19T12:21:25;14.80;63.40
997;DHT22;487;50.126;8.698;2023-04-19T12:23:55;14.80;62.40
997;DHT22;487;50.126;8.698;2023-04-19T12:26:25;14.90;58.80
997;DHT22;487;50.126;8.698;2023-04-19T12:28:54;14.80;58.60
997;DHT22;487;50.126;8.698;2023-04-19T12:31:22;14.90;58.50
997;DHT22;487;50.126;8.698;2023-04-19T12:33:50;14.90;59.10
997;DHT22;487;50.126;8.698;2023-04-19T12:36:18;15.00;59.40
997;DHT22;487;50.126;8.698;2023-04-19T12:41:15;15.00;65.30
997;DHT22;487;50.126;8.698;2023-04-19T12:43:44;15.00;63.40
997;DHT22;487;50.126;8.698;2023-04-19T12:46:12;17.40;65.70
997;DHT22;487;50.126;8.698;2023-04-19T12:48:40;15.10;61.40
997;DHT22;487;50.126;8.698;2023-04-19T12:51:08;15.10;57.00
997;DHT22;487;50.126;8.698;2023-04-19T12:53:35;17.90;55.30
997;DHT22;487;50.126;8.698;2023-04-19T12:56:04;15.40;55.80
997;DHT22;487;50.126;8.698;2023-04-19T12:58:33;15.50;53.20
997;DHT22;487;50.126;8.698;2023-04-19T13:01:02;15.60;54.40
997;DHT22;487;50.126;8.698;2023-04-19T13:03:32;15.60;55.70
997;DHT22;487;50.126;8.698;2023-04-19T13:06:02;15.70;49.70
997;DHT22;487;50.126;8.698;2023-04-19T13:08:30;15.50;47.90
997;DHT22;487;50.126;8.698;2023-04-19T13:11:12;15.40;49.10
997;DHT22;487;50.126;8.698;2023-04-19T13:13:40;15.30;44.80
997;DHT22;487;50.126;8.698;2023-04-19T13:16:09;15.20;47.10
997;DHT22;487;50.126;8.698;2023-04-19T13:18:37;15.20;46.70
997;DHT22;487;50.126;8.698;2023-04-19T13:21:05;15.20;44.60
997;DHT22;487;50.126;8.698;2023-04-19T13:23:34;15.30;47.70
997;DHT22;487;50.126;8.698;2023-04-19T13:26:02;15.40;35.80
997;DHT22;487;50.126;8.698;2023-04-19T13:28:30;15.20;24.80
997;DHT22;487;50.126;8.698;2023-04-19T13:31:01;15.10;18.30
997;DHT22;487;50.126;8.698;2023-04-19T13:33:30;15.20;12.20
997;DHT22;487;50.126;8.698;2023-04-19T13:35:59;15.20;9.10
997;DHT22;487;50.126;8.698;2023-04-19T13:38:26;15.20;10.10
997;DHT22;487;50.126;8.698;2023-04-19T13:40:54;15.20;10.60
997;DHT22;487;50.126;8.698;2023-04-19T13:43:22;15.30;11.70
997;DHT22;487;50.126;8.698;2023-04-19T13:45:50;15.40;10.50
997;DHT22;487;50.126;8.698;2023-04-19T13:48:18;15.30;10.50
997;DHT22;487;50.126;8.698;2023-04-19T13:50:48;17.80;11.50
997;DHT22;487;50.126;8.698;2023-04-19T13:53:17;15.30;14.60
997;DHT22;487;50.126;8.698;2023-04-19T13:55:45;15.20;16.30
997;DHT22;487;50.126;8.698;2023-04-19T13:58:13;15.30;18.30
997;DHT22;487;50.126;8.698;2023-04-19T14:00:41;15.40;20.60
997;DHT22;487;50.126;8.698;2023-04-19T14:03:09;15.60;20.00
997;DHT22;487;50.126;8.698;2023-04-19T14:05:37;15.70;19.60
997;DHT22;487;50.126;8.698;2023-04-19T14:08:06;15.60;19.50
997;DHT22;487;50.126;8.698;2023-04-19T14:15:55;15.50;20.10
997;DHT22;487;50.126;8.698;2023-04-19T14:18:23;15.60;20.70
997;DHT22;487;50.126;8.698;2023-04-19T14:20:51;15.80;20.80
997;DHT22;487;50.126;8.698;2023-04-19T14:23:20;15.90;20.30
997;DHT22;487;50.126;8.698;2023-04-19T14:25:48;15.00;20.80
997;DHT22;487;50.126;8.698;2023-04-19T14:28:16;15.90;22.70
997;DHT22;487;50.126;8.698;2023-04-19T14:30:44;15.90;19.60
997;DHT22;487;50.126;8.698;2023-04-19T14:33:12;16.00;20.50
997;DHT22;487;50.126;8.698;2023-04-19T14:35:40;16.00;20.20
997;DHT22;487;50.126;8.698;2023-04-19T14:38:08;16.10;21.30
997;DHT22;487;50.126;8.698;2023-04-19T14:40:38;16.20;19.80
997;DHT22;487;50.126;8.698;2023-04-19T14:43:05;16.20;19.40
997;DHT22;487;50.126;8.698;2023-04-19T14:45:35;16.00;20.00
997;DHT22;487;50.126;8.698;2023-04-19T14:48:04;15.80;19.80
997;DHT22;487;50.126;8.698;2023-04-19T14:53:00;15.70;22.20
997;DHT22;487;50.126;8.698;2023-04-19T14:55:28;15.50;21.30
997;DHT22;487;50.126;8.698;2023-04-19T14:57:57;15.60;22.10
997;DHT22;487;50.126;8.698;2023-04-19T15:00:26;15.60;23.10
997;DHT22;487;50.126;8.698;2023-04-19T15:02:54;15.70;23.60
997;DHT22;487;50.126;8.698;2023-04-19T15:05:25;15.70;22.40
997;DHT22;487;50.126;8.698;2023-04-19T15:07:54;15.90;23.70
997;DHT22;487;50.126;8.698;2023-04-19T15:10:22;15.80;32.50
997;DHT22;487;50.126;8.698;2023-04-19T15:12:50;15.90;20.90
997;DHT22;487;50.126;8.698;2023-04-19T15:15:19;15.90;21.70
997;DHT22;487;50.126;8.698;2023-04-19T15:17:48;15.80;22.00
997;DHT22;487;50.126;8.698;2023-04-19T15:20:16;15.80;22.20
997;DHT22;487;50.126;8.698;2023-04-19T15:22:44;15.70;22.60
997;DHT22;487;50.126;8.698;2023-04-19T15:25:12;15.60;22.70
997;DHT22;487;50.126;8.698;2023-04-19T15:27:41;15.60;22.10
997;DHT22;487;50.126;8.698;2023-04-19T15:30:09;15.70;23.00
997;DHT22;487;50.126;8.698;2023-04-19T15:32:39;15.70;25.40
997;DHT22;487;50.126;8.698;2023-04-19T15:35:10;15.70;25.40
997;DHT22;487;50.126;8.698;2023-04-19T15:37:38;15.60;25.10
997;DHT22;487;50.126;8.698;2023-04-19T15:40:07;15.60;25.80
997;DHT22;487;50.126;8.698;2023-04-19T15:42:38;15.70;26.60
997;DHT22;487;50.126;8.698;2023-04-19T15:45:07;15.70;24.00
997;DHT22;487;50.126;8.698;2023-04-19T15:47:39;15.60;23.70
997;DHT22;487;50.126;8.698;2023-04-19T15:50:08;15.50;25.00
997;DHT22;487;50.126;8.698;2023-04-19T15:52:36;15.40;25.60
997;DHT22;487;50.126;8.698;2023-04-19T15:55:04;15.30;25.90
997;DHT22;487;50.126;8.698;2023-04-19T15:57:32;15.20;26.10
997;DHT22;487;50.126;8.698;2023-04-19T16:00:00;15.10;25.10
997;DHT22;487;50.126;8.698;2023-04-19T16:02:27;15.00;25.50
997;DHT22;487;50.126;8.698;2023-04-19T16:04:57;14.90;25.10
997;DHT22;487;50.126;8.698;2023-04-19T16:07:26;14.70;25.70
997;DHT22;487;50.126;8.698;2023-04-19T16:09:53;14.60;24.20
997;DHT22;487;50.126;8.698;2023-04-19T16:14:51;14.50;24.10
997;DHT22;487;50.126;8.698;2023-04-19T16:17:19;14.60;24.40
997;DHT22;487;50.126;8.698;2023-04-19T16:19:46;14.60;24.20
997;DHT22;487;50.126;8.698;2023-04-19T16:22:16;14.50;24.20
997;DHT22;487;50.126;8.698;2023-04-19T16:24:45;14.40;25.20
997;DHT22;487;50.126;8.698;2023-04-19T16:27:12;14.40;25.70
997;DHT22;487;50.126;8.698;2023-04-19T16:29:40;14.30;26.00
997;DHT22;487;50.126;8.698;2023-04-19T16:32:08;14.20;24.90
997;DHT22;487;50.126;8.698;2023-04-19T16:34:36;14.20;25.80
997;DHT22;487;50.126;8.698;2023-04-19T16:37:04;14.20;25.20
997;DHT22;487;50.126;8.698;2023-04-19T16:39:33;14.20;24.50
997;DHT22;487;50.126;8.698;2023-04-19T16:42:01;14.10;24.10
997;DHT22;487;50.126;8.698;2023-04-19T16:44:29;14.10;24.00
997;DHT22;487;50.126;8.698;2023-04-19T16:46:57;14.10;23.90
997;DHT22;487;50.126;8.698;2023-04-19T16:49:24;14.10;22.60
997;DHT22;487;50.126;8.698;2023-04-19T16:51:52;14.10;24.30
997;DHT22;487;50.126;8.698;2023-04-19T16:56:50;14.00;21.80
997;DHT22;487;50.126;8.698;2023-04-19T16:59:17;14.00;22.60
997;DHT22;487;50.126;8.698;2023-04-19T17:01:45;14.00;24.10
997;DHT22;487;50.126;8.698;2023-04-19T17:04:13;14.00;24.30
997;DHT22;487;50.126;8.698;2023-04-19T17:06:41;14.00;23.70
997;DHT22;487;50.126;8.698;2023-04-19T17:09:09;14.00;24.30
997;DHT22;487;50.126;8.698;2023-04-19T17:11:37;14.00;25.70
997;DHT22;487;50.126;8.698;2023-04-19T17:14:06;14.00;25.40
997;DHT22;487;50.126;8.698;2023-04-19T17:16:34;14.00;23.90
997;DHT22;487;50.126;8.698;2023-04-19T17:19:02;14.00;24.70
997;DHT22;487;50.126;8.698;2023-04-19T17:21:30;14.00;24.90
997;DHT22;487;50.126;8.698;2023-04-19T17:23:58;14.00;23.30
997;DHT22;487;50.126;8.698;2023-04-19T17:26:26;13.80;22.50
997;DHT22;487;50.126;8.698;2023-04-19T17:28:54;13.80;21.30
997;DHT22;487;50.126;8.698;2023-04-19T17:31:23;13.60;20.20
997;DHT22;487;50.126;8.698;2023-04-19T17:33:51;13.60;21.90
997;DHT22;487;50.126;8.698;2023-04-19T17:36:19;13.60;23.10
997;DHT22;487;50.126;8.698;2023-04-19T17:38:47;13.60;21.40
997;DHT22;487;50.126;8.698;2023-04-19T17:41:14;13.60;21.70
997;DHT22;487;50.126;8.698;2023-04-19T17:43:42;13.60;20.70
997;DHT22;487;50.126;8.698;2023-04-19T17:46:11;13.60;21.70
997;DHT22;487;50.126;8.698;2023-04-19T17:48:40;13.80;21.50
997;DHT22;487;50.126;8.698;2023-04-19T17:51:08;14.00;21.90
997;DHT22;487;50.126;8.698;2023-04-19T17:53:36;14.30;21.90
997;DHT22;487;50.126;8.698;2023-04-19T17:56:04;14.30;22.10
997;DHT22;487;50.126;8.698;2023-04-19T17:58:32;14.40;21.80
997;DHT22;487;50.126;8.698;2023-04-19T18:01:01;14.30;21.10
997;DHT22;487;50.126;8.698;2023-04-19T18:03:29;14.40;22.50
997;DHT22;487;50.126;8.698;2023-04-19T18:05:59;14.30;21.60
997;DHT22;487;50.126;8.698;2023-04-19T18:08:27;14.40;21.50
997;DHT22;487;50.126;8.698;2023-04-19T18:10:55;14.40;18.90
997;DHT22;487;50.126;8.698;2023-04-19T18:13:23;14.40;19.00
997;DHT22;487;50.126;8.698;2023-04-19T18:15:51;14.20;17.90
997;DHT22;487;50.126;8.698;2023-04-19T18:18:19;14.10;18.40
997;DHT22;487;50.126;8.698;2023-04-19T18:20:46;14.00;18.60
997;DHT22;487;50.126;8.698;2023-04-19T18:23:16;13.90;39.60
997;DHT22;487;50.126;8.698;2023-04-19T18:25:51;13.70;19.20
997;DHT22;487;50.126;8.698;2023-04-19T18:28:19;13.60;19.70
997;DHT22;487;50.126;8.698;2023-04-19T18:30:47;13.40;20.60
997;DHT22;487;50.126;8.698;2023-04-19T18:33:15;13.30;20.10
997;DHT22;487;50.126;8.698;2023-04-19T18:35:42;13.10;20.80
997;DHT22;487;50.126;8.698;2023-04-19T18:38:11;13.10;21.30
997;DHT22;487;50.126;8.698;2023-04-19T18:40:40;13.00;21.40
997;DHT22;487;50.126;8.698;2023-04-19T18:43:08;13.00;22.90
997;DHT22;487;50.126;8.698;2023-04-19T18:45:36;9.90;29.50
997;DHT22;487;50.126;8.698;2023-04-19T18:50:32;12.80;22.30
997;DHT22;487;50.126;8.698;2023-04-19T18:53:00;12.80;21.30
997;DHT22;487;50.126;8.698;2023-04-19T18:55:29;12.70;21.50
997;DHT22;487;50.126;8.698;2023-04-19T18:57:58;12.60;21.20
997;DHT22;487;50.126;8.698;2023-04-19T19:00:31;12.50;21.90
997;DHT22;487;50.126;8.698;2023-04-19T19:02:59;12.40;21.00
997;DHT22;487;50.126;8.698;2023-04-19T19:05:29;12.40;22.10
997;DHT22;487;50.126;8.698;2023-04-19T19:07:57;12.40;22.50
997;DHT22;487;50.126;8.698;2023-04-19T19:10:26;12.20;22.80
997;DHT22;487;50.126;8.698;2023-04-19T19:13:17;12.20;23.50
997;DHT22;487;50.126;8.698;2023-04-19T19:15:45;12.10;25.20
997;DHT22;487;50.126;8.698;2023-04-19T19:18:13;12.10;24.90
997;DHT22;487;50.126;8.698;2023-04-19T19:20:42;12.00;24.70
997;DHT22;487;50.126;8.698;2023-04-19T19:25:39;11.90;24.60
997;DHT22;487;50.126;8.698;2023-04-19T19:28:09;11.80;24.90
997;DHT22;487;50.126;8.698;2023-04-19T19:30:42;11.80;25.50
997;DHT22;487;50.126;8.698;2023-04-19T19:35:39;11.90;24.50
997;DHT22;487;50.126;8.698;2023-04-19T19:38:13;11.80;24.90
997;DHT22;487;50.126;8.698;2023-04-19T19:40:41;11.70;24.40
997;DHT22;487;50.126;8.698;2023-04-19T19:43:29;11.60;24.50
997;DHT22;487;50.126;8.698;2023-04-19T19:45:59;11.60;25.30
997;DHT22;487;50.126;8.698;2023-04-19T19:48:27;11.60;25.00
997;DHT22;487;50.126;8.698;2023-04-19T19:50:56;11.60;25.20
997;DHT22;487;50.126;8.698;2023-04-19T19:53:27;11.60;25.20
997;DHT22;487;50.126;8.698;2023-04-19T19:55:58;11.60;25.80
997;DHT22;487;50.126;8.698;2023-04-19T19:58:26;11.60;25.70
997;DHT22;487;50.126;8.698;2023-04-19T20:01:15;11.60;25.60
997;DHT22;487;50.126;8.698;2023-04-19T20:03:44;11.60;26.00
997;DHT22;487;50.126;8.698;2023-04-19T20:06:12;11.70;57.20
997;DHT22;487;50.126;8.698;2023-04-19T20:08:43;11.70;30.70
997;DHT22;487;50.126;8.698;2023-04-19T20:11:12;11.70;28.00
997;DHT22;487;50.126;8.698;2023-04-19T20:13:40;15.60;30.50
997;DHT22;487;50.126;8.698;2023-04-19T20:16:08;11.60;27.50
997;DHT22;487;50.126;8.698;2023-04-19T20:18:37;11.60;27.50
997;DHT22;487;50.126;8.698;2023-04-19T20:26:05;11.60;28.30
997;DHT22;487;50.126;8.698;2023-04-19T20:28:33;11.60;28.10
997;DHT22;487;50.126;8.698;2023-04-19T20:31:01;11.50;28.60
997;DHT22;487;50.126;8.698;2023-04-19T20:33:29;11.50;29.20
997;DHT22;487;50.126;8.698;2023-04-19T20:36:02;11.50;29.70
997;DHT22;487;50.126;8.698;2023-04-19T20:38:30;11.60;29.40
997;DHT22;487;50.126;8.698;2023-04-19T20:41:05;11.60;30.10
997;DHT22;487;50.126;8.698;2023-04-19T20:43:33;11.60;29.90
997;DHT22;487;50.126;8.698;2023-04-19T20:46:02;11.50;29.20
997;DHT22;487;50.126;8.698;2023-04-19T20:48:31;11.40;29.80
997;DHT22;487;50.126;8.698;2023-04-19T20:50:59;11.40;29.80
997;DHT22;487;50.126;8.698;2023-04-19T20:56:05;11.30;29.60
997;DHT22;487;50.126;8.698;2023-04-19T20:58:33;11.30;29.50
997;DHT22;487;50.126;8.698;2023-04-19T21:01:03;11.20;30.10
997;DHT22;487;50.126;8.698;2023-04-19T21:03:31;11.20;32.10
997;DHT22;487;50.126;8.698;2023-04-19T21:05:59;11.20;33.50
997;DHT22;487;50.126;8.698;2023-04-19T21:08:31;11.20;34.00
997;DHT22;487;50.126;8.698;2023-04-19T21:11:01;11.20;34.80
997;DHT22;487;50.126;8.698;2023-04-19T21:13:30;11.20;34.60
997;DHT22;487;50.126;8.698;2023-04-19T21:15:58;11.10;35.10
997;DHT22;487;50.126;8.698;2023-04-19T21:18:26;11.10;35.30
997;DHT22;487;50.126;8.698;2023-04-19T21:20:58;11.10;35.20
997;DHT22;487;50.126;8.698;2023-04-19T21:23:26;11.10;33.20
997;DHT22;487;50.126;8.698;2023-04-19T21:25:57;11.10;30.80
997;DHT22;487;50.126;8.698;2023-04-19T21:31:09;11.00;30.00
997;DHT22;487;50.126;8.698;2023-04-19T21:33:37;11.00;31.00
997;DHT22;487;50.126;8.698;2023-04-19T21:36:05;11.00;32.50
997;DHT22;487;50.126;8.698;2023-04-19T21:38:33;10.90;33.20
997;DHT22;487;50.126;8.698;2023-04-19T21:41:04;10.90;35.20
997;DHT22;487;50.126;8.698;2023-04-19T21:43:32;10.90;37.30